createdAt,value
2022-08-11T00:00:16.556Z,0.00
2022-08-11T00:01:16.529Z,0.00
2022-08-11T00:02:16.552Z,0.00
2022-08-11T00:03:16.556Z,0.00
2022-08-11T00:04:16.481Z,0.00
2022-08-11T00:05:16.471Z,0.00
2022-08-11T00:06:16.441Z,0.00
2022-08-11T00:07:16.442Z,0.00
2022-08-11T00:08:16.420Z,0.00
2022-08-11T00:09:16.415Z,0.00
2022-08-11T00:10:17.343Z,0.00
2022-08-11T00:11:16.369Z,0.00
2022-08-11T00:12:16.354Z,0.00
2022-08-11T00:13:16.973Z,0.00
2022-08-11T00:14:16.331Z,0.00
2022-08-11T00:15:16.329Z,0.00
2022-08-11T00:16:16.298Z,0.00
2022-08-11T00:17:16.283Z,0.00
2022-08-11T00:18:16.282Z,0.00
2022-08-11T00:19:16.262Z,0.00
2022-08-11T00:20:17.158Z,0.00
2022-08-11T00:21:16.898Z,0.00
2022-08-11T00:22:16.211Z,0.00
2022-08-11T00:23:17.402Z,0.00
2022-08-11T00:24:16.189Z,0.00
2022-08-11T00:25:16.224Z,0.00
2022-08-11T00:26:16.859Z,0.00
2022-08-11T00:27:16.144Z,0.00
2022-08-11T00:28:16.212Z,0.00
2022-08-11T00:29:16.138Z,0.00
2022-08-11T00:30:16.862Z,0.00
2022-08-11T00:31:16.142Z,0.00
2022-08-11T00:32:16.074Z,0.00
2022-08-11T00:33:16.062Z,0.00
2022-08-11T00:34:16.068Z,0.00
2022-08-11T00:35:53.702Z,0.00
2022-08-11T00:36:16.025Z,0.00
2022-08-11T00:37:16.006Z,0.00
2022-08-11T00:38:15.999Z,0.00
2022-08-11T00:39:16.040Z,0.00
2022-08-11T00:40:15.953Z,0.00
2022-08-11T00:41:15.994Z,0.00
2022-08-11T00:42:15.934Z,0.00
2022-08-11T00:43:19.821Z,0.00
2022-08-11T00:44:15.935Z,0.00
2022-08-11T00:45:15.881Z,0.00
2022-08-11T00:46:15.926Z,0.00
2022-08-11T00:47:15.850Z,0.00
2022-08-11T00:48:15.859Z,0.00
2022-08-11T00:49:15.845Z,0.00
2022-08-11T00:50:15.865Z,0.00
2022-08-11T00:51:15.818Z,0.00
2022-08-11T00:52:15.782Z,0.00
2022-08-11T00:53:15.780Z,0.00
2022-08-11T00:54:15.765Z,0.00
2022-08-11T00:55:16.360Z,0.00
2022-08-11T00:56:15.732Z,0.00
2022-08-11T00:57:36.356Z,0.00
2022-08-11T00:58:22.527Z,0.00
2022-08-11T00:59:34.317Z,0.00
2022-08-11T01:00:15.676Z,0.00
2022-08-11T01:01:15.683Z,0.00
2022-08-11T01:02:15.644Z,0.00
2022-08-11T01:03:15.665Z,0.00
2022-08-11T01:04:15.601Z,0.00
2022-08-11T01:05:15.721Z,0.00
2022-08-11T01:06:15.588Z,0.00
2022-08-11T01:07:15.598Z,0.00
2022-08-11T01:08:15.574Z,0.00
2022-08-11T01:09:22.452Z,0.00
2022-08-11T01:10:15.517Z,0.00
2022-08-11T01:11:15.504Z,0.00
2022-08-11T01:12:15.594Z,0.00
2022-08-11T01:13:15.498Z,0.00
2022-08-11T01:14:15.460Z,0.00
2022-08-11T01:15:15.447Z,0.00
2022-08-11T01:16:15.431Z,0.00
2022-08-11T01:17:15.433Z,0.00
2022-08-11T01:18:15.439Z,0.00
2022-08-11T01:19:16.376Z,0.00
2022-08-11T01:20:44.917Z,0.00
2022-08-11T01:21:15.365Z,0.00
2022-08-11T01:22:15.367Z,0.00
2022-08-11T01:23:15.850Z,0.00
2022-08-11T01:24:15.333Z,0.00
2022-08-11T01:25:15.301Z,0.00
2022-08-11T01:26:15.299Z,0.00
2022-08-11T01:27:18.989Z,0.00
2022-08-11T01:28:15.258Z,0.00
2022-08-11T01:29:15.320Z,0.00
2022-08-11T01:30:15.245Z,0.00
2022-08-11T01:31:15.242Z,0.00
2022-08-11T01:32:15.229Z,0.00
2022-08-11T01:33:15.186Z,0.00
2022-08-11T01:34:15.167Z,0.00
2022-08-11T01:35:15.153Z,0.00
2022-08-11T01:36:15.163Z,0.00
2022-08-11T01:37:15.155Z,0.00
2022-08-11T01:38:15.114Z,0.00
2022-08-11T01:39:17.882Z,0.00
2022-08-11T01:40:15.086Z,0.00
2022-08-11T01:41:16.021Z,0.00
2022-08-11T01:42:15.074Z,0.00
2022-08-11T01:43:15.173Z,0.00
2022-08-11T01:44:15.029Z,0.00
2022-08-11T01:45:15.015Z,0.00
2022-08-11T01:46:15.023Z,0.00
2022-08-11T01:47:15.018Z,0.00
2022-08-11T01:48:14.983Z,0.00
2022-08-11T01:50:05.947Z,0.00
2022-08-11T01:50:14.945Z,0.00
2022-08-11T01:51:16.951Z,0.00
2022-08-11T01:52:14.908Z,0.00
2022-08-11T01:53:14.907Z,0.00
2022-08-11T01:54:14.876Z,0.00
2022-08-11T01:55:14.893Z,0.00
2022-08-11T01:56:14.873Z,0.00
2022-08-11T01:57:14.835Z,0.00
2022-08-11T01:58:14.894Z,0.00
2022-08-11T01:59:14.818Z,4.00
2022-08-11T02:00:14.813Z,0.00
2022-08-11T02:01:14.850Z,0.00
2022-08-11T02:02:16.754Z,4.00
2022-08-11T02:03:14.842Z,0.00
2022-08-11T02:04:17.439Z,4.00
2022-08-11T02:05:14.723Z,0.00
2022-08-11T02:06:14.716Z,4.00
2022-08-11T02:07:14.692Z,4.00
2022-08-11T02:08:14.683Z,4.00
2022-08-11T02:09:14.665Z,4.00
2022-08-11T02:10:14.682Z,4.00
2022-08-11T02:11:14.669Z,4.00
2022-08-11T02:12:14.654Z,4.00
2022-08-11T02:13:14.615Z,4.00
2022-08-11T02:14:14.710Z,8.00
2022-08-11T02:15:14.607Z,4.00
2022-08-11T02:16:14.560Z,4.00
2022-08-11T02:17:14.625Z,4.00
2022-08-11T02:18:14.525Z,4.00
2022-08-11T02:19:14.527Z,8.00
2022-08-11T02:20:14.536Z,8.00
2022-08-11T02:21:14.489Z,8.00
2022-08-11T02:22:14.544Z,8.00
2022-08-11T02:23:14.456Z,8.00
2022-08-11T02:24:14.447Z,8.00
2022-08-11T02:25:17.697Z,8.00
2022-08-11T02:26:14.423Z,8.00
2022-08-11T02:27:14.392Z,12.00
2022-08-11T02:28:14.384Z,12.00
2022-08-11T02:29:14.388Z,12.00
2022-08-11T02:30:14.378Z,12.00
2022-08-11T02:32:10.881Z,12.00
2022-08-11T02:32:24.509Z,16.00
2022-08-11T02:33:14.913Z,16.00
2022-08-11T02:34:14.331Z,16.00
2022-08-11T02:35:14.296Z,20.00
2022-08-11T02:36:14.899Z,20.00
2022-08-11T02:37:14.281Z,24.00
2022-08-11T02:38:14.249Z,24.00
2022-08-11T02:39:14.290Z,24.00
2022-08-11T02:40:14.970Z,28.00
2022-08-11T02:41:14.210Z,28.00
2022-08-11T02:42:32.458Z,32.00
2022-08-11T02:43:14.183Z,32.00
2022-08-11T02:44:14.169Z,36.00
2022-08-11T02:45:14.142Z,40.00
2022-08-11T02:46:18.180Z,40.00
2022-08-11T02:47:14.192Z,44.00
2022-08-11T02:48:14.098Z,48.00
2022-08-11T02:49:14.118Z,52.00
2022-08-11T02:50:14.070Z,52.00
2022-08-11T02:51:14.055Z,52.00
2022-08-11T02:52:14.035Z,60.00
2022-08-11T02:53:14.039Z,60.00
2022-08-11T02:54:14.024Z,60.00
2022-08-11T02:55:56.486Z,68.00
2022-08-11T02:56:13.990Z,68.00
2022-08-11T02:57:14.070Z,72.00
2022-08-11T02:58:13.969Z,72.00
2022-08-11T02:59:13.988Z,76.00
2022-08-11T03:00:14.920Z,76.00
2022-08-11T03:01:13.997Z,80.00
2022-08-11T03:02:13.942Z,84.00
2022-08-11T03:03:13.902Z,84.00
2022-08-11T03:04:13.909Z,88.00
2022-08-11T03:05:13.890Z,88.00
2022-08-11T03:06:13.833Z,92.00
2022-08-11T03:07:28.960Z,92.00
2022-08-11T03:08:14.441Z,96.00
2022-08-11T03:09:13.793Z,100.00
2022-08-11T03:10:13.779Z,104.00
2022-08-11T03:11:13.759Z,104.00
2022-08-11T03:12:13.871Z,108.00
2022-08-11T03:13:15.620Z,112.00
2022-08-11T03:14:13.723Z,116.00
2022-08-11T03:15:13.707Z,116.00
2022-08-11T03:16:13.688Z,120.00
2022-08-11T03:17:13.694Z,124.00
2022-08-11T03:18:13.695Z,124.00
2022-08-11T03:19:13.655Z,128.00
2022-08-11T03:20:13.712Z,132.00
2022-08-11T03:21:13.628Z,136.00
2022-08-11T03:22:14.348Z,140.00
2022-08-11T03:23:20.145Z,144.00
2022-08-11T03:24:14.447Z,148.00
2022-08-11T03:25:13.571Z,152.00
2022-08-11T03:26:13.558Z,152.00
2022-08-11T03:27:13.558Z,156.00
2022-08-11T03:28:13.599Z,156.00
2022-08-11T03:29:18.148Z,164.00
2022-08-11T03:30:13.490Z,168.00
2022-08-11T03:31:13.485Z,168.00
2022-08-11T03:32:13.488Z,172.00
2022-08-11T03:33:13.511Z,176.00
2022-08-11T03:34:13.452Z,180.00
2022-08-11T03:35:21.283Z,180.00
2022-08-11T03:36:13.419Z,184.00
2022-08-11T03:37:16.170Z,188.00
2022-08-11T03:38:13.406Z,192.00
2022-08-11T03:39:13.405Z,196.00
2022-08-11T03:40:13.348Z,200.00
2022-08-11T03:42:02.465Z,200.00
2022-08-11T03:42:13.342Z,204.00
2022-08-11T03:43:13.351Z,208.00
2022-08-11T03:44:13.291Z,212.00
2022-08-11T03:45:13.284Z,216.00
2022-08-11T03:46:13.284Z,220.00
2022-08-11T03:47:13.279Z,224.00
2022-08-11T03:48:13.241Z,228.00
2022-08-11T03:49:13.245Z,232.00
2022-08-11T03:50:13.202Z,236.00
2022-08-11T03:51:13.209Z,240.00
2022-08-11T03:52:13.942Z,244.00
2022-08-11T03:53:13.197Z,248.00
2022-08-11T03:54:13.158Z,252.00
2022-08-11T03:55:13.136Z,260.00
2022-08-11T03:56:13.139Z,264.00
2022-08-11T03:57:13.122Z,272.00
2022-08-11T03:58:13.145Z,276.00
2022-08-11T03:59:13.146Z,284.00
2022-08-11T04:00:13.071Z,292.00
2022-08-11T04:01:13.097Z,296.00
2022-08-11T04:02:13.047Z,300.00
2022-08-11T04:03:13.069Z,308.00
2022-08-11T04:04:13.079Z,312.00
2022-08-11T04:05:13.004Z,316.00
2022-08-11T04:06:13.002Z,320.00
2022-08-11T04:07:17.570Z,324.00
2022-08-11T04:08:12.963Z,328.00
2022-08-11T04:09:13.314Z,332.00
2022-08-11T04:10:12.939Z,336.00
2022-08-11T04:11:12.931Z,344.00
2022-08-11T04:12:14.803Z,348.00
2022-08-11T04:13:12.877Z,348.00
2022-08-11T04:14:12.861Z,356.00
2022-08-11T04:15:12.907Z,360.00
2022-08-11T04:16:13.026Z,364.00
2022-08-11T04:17:12.963Z,372.00
2022-08-11T04:18:12.882Z,380.00
2022-08-11T04:19:12.891Z,376.00
2022-08-11T04:20:12.795Z,376.00
2022-08-11T04:21:12.784Z,376.00
2022-08-11T04:22:12.754Z,380.00
2022-08-11T04:23:12.758Z,384.00
2022-08-11T04:24:37.729Z,384.00
2022-08-11T04:25:12.724Z,384.00
2022-08-11T04:26:16.092Z,384.00
2022-08-11T04:27:14.348Z,380.00
2022-08-11T04:28:28.631Z,380.00
2022-08-11T04:29:12.652Z,388.00
2022-08-11T04:30:12.738Z,372.00
2022-08-11T04:31:12.648Z,376.00
2022-08-11T04:32:12.645Z,388.00
2022-08-11T04:33:12.620Z,400.00
2022-08-11T04:34:12.584Z,404.00
2022-08-11T04:35:12.586Z,400.00
2022-08-11T04:36:12.581Z,396.00
2022-08-11T04:37:12.546Z,388.00
2022-08-11T04:38:12.529Z,376.00
2022-08-11T04:39:12.569Z,380.00
2022-08-11T04:40:12.524Z,380.00
2022-08-11T04:41:12.490Z,388.00
2022-08-11T04:42:12.481Z,376.00
2022-08-11T04:43:12.479Z,340.00
2022-08-11T04:44:12.447Z,416.00
2022-08-11T04:45:12.460Z,444.00
2022-08-11T04:46:12.542Z,464.00
2022-08-11T04:47:12.407Z,524.00
2022-08-11T04:48:12.466Z,628.00
2022-08-11T04:49:12.387Z,632.00
2022-08-11T04:50:12.465Z,508.00
2022-08-11T04:51:17.545Z,896.00
2022-08-11T04:52:12.336Z,948.00
2022-08-11T04:53:12.343Z,684.00
2022-08-11T04:54:12.308Z,748.00
2022-08-11T04:55:12.308Z,728.00
2022-08-11T04:56:12.299Z,572.00
2022-08-11T04:57:12.271Z,696.00
2022-08-11T04:58:12.277Z,972.00
2022-08-11T04:59:12.241Z,1312.00
2022-08-11T05:00:12.244Z,792.00
2022-08-11T05:01:12.325Z,1528.00
2022-08-11T05:02:17.054Z,600.00
2022-08-11T05:03:12.190Z,1124.00
2022-08-11T05:04:12.172Z,600.00
2022-08-11T05:05:12.183Z,904.00
2022-08-11T05:06:12.169Z,1540.00
2022-08-11T05:07:12.135Z,1672.00
2022-08-11T05:08:12.144Z,684.00
2022-08-11T05:09:12.114Z,1668.00
2022-08-11T05:10:12.106Z,760.00
2022-08-11T05:11:12.136Z,1860.00
2022-08-11T05:12:12.066Z,1832.00
2022-08-11T05:13:12.077Z,1780.00
2022-08-11T05:14:12.042Z,668.00
2022-08-11T05:15:12.122Z,736.00
2022-08-11T05:16:12.052Z,788.00
2022-08-11T05:17:12.038Z,1040.00
2022-08-11T05:18:12.007Z,1192.00
2022-08-11T05:19:11.999Z,1628.00
2022-08-11T05:20:11.970Z,916.00
2022-08-11T05:21:11.986Z,1508.00
2022-08-11T05:22:12.501Z,1956.00
2022-08-11T05:23:12.505Z,1900.00
2022-08-11T05:24:11.923Z,612.00
2022-08-11T05:25:11.910Z,2204.00
2022-08-11T05:26:47.885Z,1092.00
2022-08-11T05:27:14.001Z,2188.00
2022-08-11T05:28:12.506Z,2336.00
2022-08-11T05:29:20.016Z,2260.00
2022-08-11T05:30:11.858Z,2200.00
2022-08-11T05:31:11.847Z,1780.00
2022-08-11T05:32:12.508Z,2200.00
2022-08-11T05:33:11.808Z,1984.00
2022-08-11T05:34:11.811Z,2232.00
2022-08-11T05:36:00.825Z,2188.00
2022-08-11T05:36:11.774Z,1456.00
2022-08-11T05:37:26.213Z,644.00
2022-08-11T05:38:11.758Z,2256.00
2022-08-11T05:39:12.549Z,2044.00
2022-08-11T05:40:11.823Z,404.00
2022-08-11T05:41:11.725Z,1380.00
2022-08-11T05:42:11.717Z,504.00
2022-08-11T05:43:11.711Z,1684.00
2022-08-11T05:44:20.867Z,1856.00
2022-08-11T05:45:15.769Z,1732.00
2022-08-11T05:46:13.293Z,2252.00
2022-08-11T05:47:11.643Z,2468.00
2022-08-11T05:48:11.646Z,2236.00
2022-08-11T05:49:11.607Z,1596.00
2022-08-11T05:50:13.801Z,2404.00
2022-08-11T05:51:11.657Z,2560.00
2022-08-11T05:52:12.895Z,2560.00
2022-08-11T05:53:11.961Z,2636.00
2022-08-11T05:54:28.596Z,2536.00
2022-08-11T05:55:12.541Z,2568.00
2022-08-11T05:56:11.579Z,2648.00
2022-08-11T05:57:38.589Z,2608.00
2022-08-11T05:58:11.522Z,2496.00
2022-08-11T05:59:11.500Z,2520.00
2022-08-11T06:00:12.041Z,2396.00
2022-08-11T06:01:11.541Z,1500.00
2022-08-11T06:02:11.462Z,2860.00
2022-08-11T06:03:11.554Z,2792.00
2022-08-11T06:04:11.470Z,2788.00
2022-08-11T06:05:11.456Z,2844.00
2022-08-11T06:06:14.108Z,2856.00
2022-08-11T06:07:11.413Z,2848.00
2022-08-11T06:08:11.397Z,2488.00
2022-08-11T06:09:11.384Z,2416.00
2022-08-11T06:10:12.023Z,2768.00
2022-08-11T06:11:11.347Z,3080.00
2022-08-11T06:12:11.349Z,3012.00
2022-08-11T06:13:11.359Z,3088.00
2022-08-11T06:14:11.330Z,3132.00
2022-08-11T06:15:11.322Z,2644.00
2022-08-11T06:16:11.333Z,3116.00
2022-08-11T06:17:11.291Z,3124.00
2022-08-11T06:18:11.286Z,3248.00
2022-08-11T06:19:11.266Z,3216.00
2022-08-11T06:20:11.258Z,3300.00
2022-08-11T06:21:11.263Z,3456.00
2022-08-11T06:22:11.245Z,688.00
2022-08-11T06:23:11.247Z,3208.00
2022-08-11T06:24:12.085Z,3248.00
2022-08-11T06:25:11.214Z,3232.00
2022-08-11T06:26:11.212Z,3208.00
2022-08-11T06:27:13.092Z,3216.00
2022-08-11T06:28:11.211Z,3252.00
2022-08-11T06:29:11.162Z,3356.00
2022-08-11T06:30:11.185Z,3396.00
2022-08-11T06:31:11.170Z,3372.00
2022-08-11T06:32:11.138Z,3448.00
2022-08-11T06:33:11.436Z,3532.00
2022-08-11T06:34:11.132Z,3532.00
2022-08-11T06:35:11.120Z,3544.00
2022-08-11T06:36:12.080Z,3504.00
2022-08-11T06:37:11.110Z,3472.00
2022-08-11T06:38:11.083Z,3500.00
2022-08-11T06:39:11.128Z,3332.00
2022-08-11T06:40:11.086Z,3216.00
2022-08-11T06:41:11.089Z,3268.00
2022-08-11T06:42:11.045Z,3252.00
2022-08-11T06:43:11.058Z,3220.00
2022-08-11T06:44:11.021Z,3252.00
2022-08-11T06:45:11.016Z,3244.00
2022-08-11T06:46:11.023Z,3268.00
2022-08-11T06:47:11.023Z,3192.00
2022-08-11T06:48:10.980Z,3212.00
2022-08-11T06:49:10.997Z,3248.00
2022-08-11T06:50:10.971Z,3240.00
2022-08-11T06:51:10.954Z,3268.00
2022-08-11T06:52:34.496Z,3276.00
2022-08-11T06:53:10.967Z,3192.00
2022-08-11T06:54:10.965Z,3180.00
2022-08-11T06:55:54.934Z,3184.00
2022-08-11T06:56:10.932Z,3280.00
2022-08-11T06:57:29.957Z,3328.00
2022-08-11T06:58:10.907Z,3300.00
2022-08-11T06:59:10.921Z,3260.00
2022-08-11T07:00:10.906Z,3240.00
2022-08-11T07:01:10.936Z,3260.00
2022-08-11T07:02:10.907Z,3332.00
2022-08-11T07:03:10.875Z,3328.00
2022-08-11T07:04:10.845Z,3276.00
2022-08-11T07:05:10.843Z,3160.00
2022-08-11T07:06:10.830Z,3088.00
2022-08-11T07:07:10.823Z,2988.00
2022-08-11T07:08:34.140Z,3276.00
2022-08-11T07:09:10.819Z,3484.00
2022-08-11T07:10:10.790Z,3520.00
2022-08-11T07:11:10.787Z,3516.00
2022-08-11T07:12:11.589Z,3532.00
2022-08-11T07:13:10.770Z,3536.00
2022-08-11T07:14:10.761Z,3528.00
2022-08-11T07:15:10.757Z,3552.00
2022-08-11T07:16:13.902Z,3516.00
2022-08-11T07:17:10.728Z,3544.00
2022-08-11T07:18:10.738Z,3552.00
2022-08-11T07:19:10.739Z,3568.00
2022-08-11T07:20:11.569Z,3556.00
2022-08-11T07:22:00.066Z,3568.00
2022-08-11T07:22:10.683Z,3584.00
2022-08-11T07:23:10.671Z,3572.00
2022-08-11T07:24:10.666Z,3580.00
2022-08-11T07:25:10.669Z,3600.00
2022-08-11T07:26:10.671Z,3612.00
2022-08-11T07:27:10.640Z,3624.00
2022-08-11T07:28:10.679Z,3608.00
2022-08-11T07:29:10.635Z,3604.00
2022-08-11T07:30:10.624Z,3620.00
2022-08-11T07:31:10.612Z,3600.00
2022-08-11T07:32:10.620Z,3628.00
2022-08-11T07:33:10.621Z,3612.00
2022-08-11T07:34:14.436Z,3596.00
2022-08-11T07:35:10.584Z,3592.00
2022-08-11T07:36:10.557Z,3596.00
2022-08-11T07:37:10.555Z,3604.00
2022-08-11T07:38:10.560Z,3596.00
2022-08-11T07:39:10.593Z,3576.00
2022-08-11T07:40:10.553Z,3556.00
2022-08-11T07:41:10.518Z,3548.00
2022-08-11T07:42:10.527Z,4132.00
2022-08-11T07:43:10.498Z,4144.00
2022-08-11T07:44:10.500Z,4128.00
2022-08-11T07:45:10.509Z,4080.00
2022-08-11T07:46:10.483Z,4060.00
2022-08-11T07:47:10.503Z,3972.00
2022-08-11T07:48:10.468Z,3972.00
2022-08-11T07:49:10.473Z,3956.00
2022-08-11T07:50:10.445Z,4080.00
2022-08-11T07:51:10.455Z,4100.00
2022-08-11T07:52:10.450Z,4076.00
2022-08-11T07:53:10.437Z,4084.00
2022-08-11T07:54:16.813Z,3980.00
2022-08-11T07:55:10.475Z,3952.00
2022-08-11T07:56:10.656Z,3972.00
2022-08-11T07:58:06.585Z,4028.00
2022-08-11T07:58:15.370Z,4088.00
2022-08-11T07:59:10.410Z,4052.00
2022-08-11T08:00:10.399Z,4008.00
2022-08-11T08:01:21.904Z,3960.00
2022-08-11T08:02:10.447Z,3988.00
2022-08-11T08:03:10.407Z,3952.00
2022-08-11T08:04:10.346Z,4104.00
2022-08-11T08:05:10.327Z,4120.00
2022-08-11T08:06:28.570Z,4012.00
2022-08-11T08:07:10.344Z,4060.00
2022-08-11T08:08:10.362Z,4044.00
2022-08-11T08:09:10.303Z,4028.00
2022-08-11T08:10:14.097Z,4008.00
2022-08-11T08:11:10.291Z,4028.00
2022-08-11T08:12:10.288Z,4112.00
2022-08-11T08:13:10.347Z,4120.00
2022-08-11T08:14:10.283Z,4024.00
2022-08-11T08:15:10.251Z,4052.00
2022-08-11T08:16:10.251Z,4060.00
2022-08-11T08:17:10.252Z,4036.00
2022-08-11T08:18:26.328Z,4056.00
2022-08-11T08:19:10.231Z,4236.00
2022-08-11T08:20:10.226Z,4288.00
2022-08-11T08:21:10.231Z,4224.00
2022-08-11T08:22:11.970Z,4160.00
2022-08-11T08:23:10.200Z,3780.00
2022-08-11T08:24:10.237Z,4068.00
2022-08-11T08:25:10.190Z,4104.00
2022-08-11T08:26:16.795Z,4096.00
2022-08-11T08:27:10.169Z,4136.00
2022-08-11T08:28:10.158Z,4092.00
2022-08-11T08:29:10.185Z,4308.00
2022-08-11T08:30:10.160Z,4192.00
2022-08-11T08:31:10.140Z,2760.00
2022-08-11T08:32:10.197Z,1336.00
2022-08-11T08:33:10.130Z,4336.00
2022-08-11T08:34:10.116Z,4276.00
2022-08-11T08:35:10.117Z,4236.00
2022-08-11T08:36:10.130Z,4240.00
2022-08-11T08:37:15.965Z,2572.00
2022-08-11T08:38:10.651Z,4180.00
2022-08-11T08:39:10.172Z,3908.00
2022-08-11T08:40:10.069Z,4120.00
2022-08-11T08:41:10.066Z,3932.00
2022-08-11T08:42:10.065Z,3944.00
2022-08-11T08:43:10.058Z,4004.00
2022-08-11T08:44:35.133Z,4068.00
2022-08-11T08:45:10.653Z,4084.00
2022-08-11T08:46:10.101Z,3608.00
2022-08-11T08:47:10.019Z,3036.00
2022-08-11T08:48:10.097Z,2948.00
2022-08-11T08:49:10.031Z,3064.00
2022-08-11T08:50:10.021Z,3396.00
2022-08-11T08:51:10.975Z,3868.00
2022-08-11T08:52:29.349Z,4564.00
2022-08-11T08:53:10.630Z,3332.00
2022-08-11T08:54:09.972Z,3244.00
2022-08-11T08:55:09.965Z,908.00
2022-08-11T08:56:09.960Z,2832.00
2022-08-11T08:57:09.946Z,3128.00
2022-08-11T08:58:09.963Z,3216.00
2022-08-11T08:59:09.927Z,3200.00
2022-08-11T09:00:12.528Z,3220.00
2022-08-11T09:01:09.977Z,3196.00
2022-08-11T09:02:09.909Z,3380.00
2022-08-11T09:03:38.069Z,3312.00
2022-08-11T09:04:12.210Z,772.00
2022-08-11T09:05:09.975Z,3124.00
2022-08-11T09:06:09.913Z,3124.00
2022-08-11T09:07:09.913Z,2916.00
2022-08-11T09:08:09.868Z,2428.00
2022-08-11T09:09:09.856Z,1616.00
2022-08-11T09:10:09.849Z,1388.00
2022-08-11T09:11:13.572Z,1644.00
2022-08-11T09:12:09.853Z,1940.00
2022-08-11T09:13:09.875Z,1676.00
2022-08-11T09:14:14.482Z,1716.00
2022-08-11T09:15:09.869Z,1832.00
2022-08-11T09:16:14.674Z,2336.00
2022-08-11T09:17:09.799Z,2764.00
2022-08-11T09:18:09.808Z,2940.00
2022-08-11T09:19:09.803Z,2940.00
2022-08-11T09:20:09.786Z,2796.00
2022-08-11T09:21:10.669Z,2824.00
2022-08-11T09:22:09.775Z,2828.00
2022-08-11T09:24:07.084Z,2752.00
2022-08-11T09:24:16.879Z,2804.00
2022-08-11T09:25:09.747Z,2820.00
2022-08-11T09:26:09.752Z,2728.00
2022-08-11T09:27:09.729Z,2772.00
2022-08-11T09:28:09.754Z,2756.00
2022-08-11T09:29:09.759Z,2868.00
2022-08-11T09:30:09.692Z,2812.00
2022-08-11T09:31:09.684Z,2692.00
2022-08-11T09:32:09.687Z,2512.00
2022-08-11T09:33:10.695Z,2468.00
2022-08-11T09:34:09.684Z,4104.00
2022-08-11T09:35:09.660Z,4356.00
2022-08-11T09:36:09.662Z,3840.00
2022-08-11T09:37:09.635Z,4436.00
2022-08-11T09:38:09.627Z,2444.00
2022-08-11T09:39:09.650Z,2544.00
2022-08-11T09:40:09.633Z,2724.00
2022-08-11T09:41:09.631Z,2884.00
2022-08-11T09:42:11.423Z,2872.00
2022-08-11T09:43:09.610Z,2704.00
2022-08-11T09:44:09.586Z,2344.00
2022-08-11T09:45:10.172Z,2372.00
2022-08-11T09:46:09.585Z,2364.00
2022-08-11T09:47:09.596Z,2508.00
2022-08-11T09:48:09.569Z,2476.00
2022-08-11T09:49:09.561Z,1740.00
2022-08-11T09:50:09.593Z,2480.00
2022-08-11T09:51:09.533Z,2344.00
2022-08-11T09:52:09.536Z,2400.00
2022-08-11T09:53:37.365Z,888.00
2022-08-11T09:54:09.542Z,2652.00
2022-08-11T09:55:09.524Z,1132.00
2022-08-11T09:56:09.515Z,2580.00
2022-08-11T09:57:09.531Z,2616.00
2022-08-11T09:58:09.483Z,2528.00
2022-08-11T09:59:09.542Z,2576.00
2022-08-11T10:00:13.586Z,2644.00
2022-08-11T10:01:09.521Z,2680.00
2022-08-11T10:02:09.488Z,2624.00
2022-08-11T10:03:09.467Z,2616.00
2022-08-11T10:04:09.442Z,2552.00
2022-08-11T10:05:09.452Z,2556.00
2022-08-11T10:06:09.432Z,2436.00
2022-08-11T10:07:09.422Z,2376.00
2022-08-11T10:08:09.423Z,2412.00
2022-08-11T10:09:09.421Z,2372.00
2022-08-11T10:10:09.433Z,2356.00
2022-08-11T10:11:09.392Z,2332.00
2022-08-11T10:12:09.394Z,2224.00
2022-08-11T10:14:04.791Z,2156.00
2022-08-11T10:14:34.017Z,2220.00
2022-08-11T10:15:10.187Z,2232.00
2022-08-11T10:16:14.719Z,2356.00
2022-08-11T10:17:09.371Z,2244.00
2022-08-11T10:18:09.358Z,2228.00
2022-08-11T10:19:09.343Z,2144.00
2022-08-11T10:20:09.325Z,2032.00
2022-08-11T10:21:09.322Z,1996.00
2022-08-11T10:22:09.312Z,1516.00
2022-08-11T10:23:09.400Z,1368.00
2022-08-11T10:24:09.303Z,1516.00
2022-08-11T10:25:09.316Z,1448.00
2022-08-11T10:26:09.290Z,1260.00
2022-08-11T10:27:09.293Z,1496.00
2022-08-11T10:28:33.015Z,2000.00
2022-08-11T10:29:13.476Z,2048.00
2022-08-11T10:30:09.266Z,2120.00
2022-08-11T10:31:12.484Z,2128.00
2022-08-11T10:32:12.199Z,2080.00
2022-08-11T10:33:09.256Z,2096.00
2022-08-11T10:34:10.216Z,1964.00
2022-08-11T10:35:09.218Z,1892.00
2022-08-11T10:36:16.675Z,1736.00
2022-08-11T10:37:09.211Z,1824.00
2022-08-11T10:38:10.093Z,1800.00
2022-08-11T10:39:09.269Z,1892.00
2022-08-11T10:40:09.177Z,1800.00
2022-08-11T10:41:09.719Z,1908.00
2022-08-11T10:42:14.327Z,1972.00
2022-08-11T10:43:09.159Z,1924.00
2022-08-11T10:44:09.157Z,1840.00
2022-08-11T10:45:09.160Z,1976.00
2022-08-11T10:46:09.168Z,1644.00
2022-08-11T10:47:09.159Z,1884.00
2022-08-11T10:48:14.840Z,1924.00
2022-08-11T10:49:09.116Z,1008.00
2022-08-11T10:50:09.109Z,760.00
2022-08-11T10:51:09.109Z,2252.00
2022-08-11T10:52:09.107Z,2236.00
2022-08-11T10:53:09.112Z,1108.00
2022-08-11T10:54:11.506Z,2080.00
2022-08-11T10:55:09.119Z,1792.00
2022-08-11T10:56:09.128Z,2116.00
2022-08-11T10:57:09.054Z,1672.00
2022-08-11T10:58:09.070Z,804.00
2022-08-11T10:59:09.040Z,736.00
2022-08-11T11:00:09.074Z,956.00
2022-08-11T11:01:09.089Z,688.00
2022-08-11T11:02:09.034Z,680.00
2022-08-11T11:03:23.507Z,672.00
2022-08-11T11:04:09.074Z,744.00
2022-08-11T11:05:09.005Z,868.00
2022-08-11T11:06:28.063Z,2220.00
2022-08-11T11:07:09.018Z,656.00
2022-08-11T11:08:09.001Z,612.00
2022-08-11T11:09:09.002Z,548.00
2022-08-11T11:10:08.974Z,576.00
2022-08-11T11:11:08.952Z,548.00
2022-08-11T11:12:08.946Z,604.00
2022-08-11T11:13:08.946Z,740.00
2022-08-11T11:14:08.950Z,760.00
2022-08-11T11:15:08.947Z,2032.00
2022-08-11T11:16:08.945Z,704.00
2022-08-11T11:17:08.915Z,892.00
2022-08-11T11:18:08.910Z,576.00
2022-08-11T11:19:08.896Z,652.00
2022-08-11T11:20:08.889Z,580.00
2022-08-11T11:21:08.896Z,1876.00
2022-08-11T11:22:08.889Z,1832.00
2022-08-11T11:23:08.890Z,1956.00
2022-08-11T11:24:09.741Z,1052.00
2022-08-11T11:25:08.847Z,680.00
2022-08-11T11:26:08.841Z,1820.00
2022-08-11T11:27:09.759Z,1852.00
2022-08-11T11:28:08.842Z,1284.00
2022-08-11T11:29:09.752Z,1720.00
2022-08-11T11:30:08.886Z,1776.00
2022-08-11T11:31:08.838Z,1696.00
2022-08-11T11:32:08.791Z,1612.00
2022-08-11T11:33:08.785Z,1508.00
2022-08-11T11:34:12.732Z,1140.00
2022-08-11T11:35:08.789Z,1048.00
2022-08-11T11:36:08.790Z,528.00
2022-08-11T11:37:08.796Z,1160.00
2022-08-11T11:38:13.202Z,1560.00
2022-08-11T11:39:08.815Z,1668.00
2022-08-11T11:40:08.729Z,1428.00
2022-08-11T11:41:08.730Z,1176.00
2022-08-11T11:42:08.733Z,1076.00
2022-08-11T11:43:08.744Z,1048.00
2022-08-11T11:44:08.724Z,1264.00
2022-08-11T11:45:09.271Z,1360.00
2022-08-11T11:46:08.700Z,1444.00
2022-08-11T11:47:08.702Z,1500.00
2022-08-11T11:48:08.673Z,1588.00
2022-08-11T11:49:10.724Z,1480.00
2022-08-11T11:50:08.681Z,1364.00
2022-08-11T11:51:08.742Z,1404.00
2022-08-11T11:52:08.642Z,1368.00
2022-08-11T11:53:08.710Z,1088.00
2022-08-11T11:54:08.703Z,1244.00
2022-08-11T11:55:08.707Z,1304.00
2022-08-11T11:56:09.247Z,1220.00
2022-08-11T11:57:08.637Z,1152.00
2022-08-11T11:58:08.611Z,1292.00
2022-08-11T11:59:09.270Z,1208.00
2022-08-11T12:00:08.592Z,1124.00
2022-08-11T12:01:08.568Z,1040.00
2022-08-11T12:02:11.785Z,1172.00
2022-08-11T12:03:08.640Z,1196.00
2022-08-11T12:04:08.563Z,1116.00
2022-08-11T12:05:08.559Z,1396.00
2022-08-11T12:06:08.546Z,1560.00
2022-08-11T12:07:08.516Z,1652.00
2022-08-11T12:08:12.694Z,1648.00
2022-08-11T12:09:08.524Z,1516.00
2022-08-11T12:10:09.276Z,1520.00
2022-08-11T12:11:08.516Z,1644.00
2022-08-11T12:12:08.473Z,1708.00
2022-08-11T12:13:09.260Z,1688.00
2022-08-11T12:14:10.788Z,1696.00
2022-08-11T12:15:08.451Z,1668.00
2022-08-11T12:16:33.348Z,1640.00
2022-08-11T12:17:09.281Z,1184.00
2022-08-11T12:18:08.458Z,1468.00
2022-08-11T12:19:08.422Z,1392.00
2022-08-11T12:20:31.578Z,1516.00
2022-08-11T12:21:08.426Z,1136.00
2022-08-11T12:22:08.398Z,1228.00
2022-08-11T12:23:08.485Z,1120.00
2022-08-11T12:24:08.409Z,1156.00
2022-08-11T12:25:08.410Z,1288.00
2022-08-11T12:26:27.313Z,1088.00